Circle Line Brooklyn — WDE8160 — position and weather

sailwx.info

Track history (hours):
 
Tides and Currents Weather Stations Pressure Air Temp Water Temp Dewpoint Dewpoint Depression Visibility Wind Speed Wind Dir Waves Ship Positions

Circle Line Brooklyn

Owner: Circle Line Sight Seeing Yachts Inc., New York, NY. More information available from US FCC via Universal Licensing System and Coast Guard Vessel Documentation Center.

Last reported at 2017-Jun-23 20:55 UTC. Time now 2017-Jun-23 22:10 UTC.
Position N 40°46' W 074°00'.

MMSI: 367402250.

Date/timePositionNaut miles runAvg speedWind from/ knotsBaromVisibWave heightAir tempDewpointWater temp
2017-Jun-23 20:55N 40°46' W 074°00'4 9.6
2017-Jun-23 20:31N 40°42' W 074°01'1 1.9
2017-Jun-23 20:00N 40°41' W 074°01'1 2.8
2017-Jun-23 19:30N 40°41' W 074°03'510.1
2017-Jun-23 19:01N 40°46' W 074°00'0 0.0
2017-Jun-23 18:28N 40°46' W 074°00'0 0.0
2017-Jun-23 18:00N 40°46' W 074°00'3 7.0
2017-Jun-23 17:30N 40°42' W 073°60'3 5.1
2017-Jun-23 17:00N 40°41' W 074°03'510.0
2017-Jun-23 16:30N 40°46' W 074°00'0 0.0
2017-Jun-23 15:58N 40°46' W 074°00'0 0.0
2017-Jun-23 15:30N 40°46' W 074°00'5 9.8
2017-Jun-23 15:00N 40°41' W 074°02'5 9.4
2017-Jun-23 14:30N 40°46' W 074°00'0 0.0
2017-Jun-23 13:58N 40°46' W 074°00'0 0.0
2017-Jun-23 13:28N 40°46' W 074°00'0 0.0
2017-Jun-23 12:58N 40°46' W 074°00'0 0.0
2017-Jun-23 02:41N 40°46' W 074°00'0 0.0
2017-Jun-23 02:29N 40°46' W 074°00'0 0.0
2017-Jun-23 01:56N 40°46' W 074°00'1 3.3
2017-Jun-23 01:31N 40°45' W 074°01'3 5.0
2017-Jun-23 01:01N 40°43' W 073°59'0 0.8
2017-Jun-23 00:31N 40°43' W 073°58'3 6.7
2017-Jun-23 00:00N 40°41' W 074°02'4 8.2
2017-Jun-22 23:30N 40°45' W 074°01'1 1.6
2017-Jun-22 23:00N 40°46' W 074°00'0 0.0
2017-Jun-22 22:30N 40°46' W 074°00'0 0.0
2017-Jun-22 22:00N 40°46' W 074°00'0 0.0
2017-Jun-22 21:29N 40°46' W 074°00'3 7.1
2017-Jun-22 21:00N 40°42' W 073°59'3 5.9
2017-Jun-22 20:30N 40°41' W 074°03'5 9.9
2017-Jun-22 20:00N 40°46' W 074°00'0 0.0
2017-Jun-22 19:30N 40°46' W 074°00'0 0.0
2017-Jun-22 19:00N 40°46' W 074°00'0 0.0
2017-Jun-22 18:30N 40°46' W 074°00'611.9
2017-Jun-22 18:00N 40°51' W 073°57'3 5.1
2017-Jun-22 17:24N 40°48' W 073°56'511.9
2017-Jun-22 17:00N 40°44' W 073°58'4 8.9
2017-Jun-22 16:31N 40°41' W 074°03'5 9.9
2017-Jun-22 16:00N 40°46' W 074°00'0 0.0
2017-Jun-22 15:30N 40°46' W 074°00'0 0.0
2017-Jun-22 14:54N 40°46' W 074°00'0 0.0
2017-Jun-22 14:30N 40°46' W 074°00'0 0.0
2017-Jun-21 00:52N 40°46' W 074°00'3 7.7
2017-Jun-21 00:30N 40°43' W 074°02'2 3.1
2017-Jun-21 00:01N 40°42' W 074°01'2 4.8
2017-Jun-20 23:31N 40°43' W 073°58'3 6.9
2017-Jun-20 23:00N 40°46' W 074°00'0 0.5
2017-Jun-20 22:27N 40°46' W 074°00'0 0.0
2017-Jun-20 21:57N 40°46' W 074°00'0 0.0
2017-Jun-20 21:30N 40°46' W 074°00'3 6.8
2017-Jun-20 21:01N 40°42' W 073°60'3 5.3
2017-Jun-20 20:30N 40°41' W 074°03'5 9.9
2017-Jun-20 20:00N 40°46' W 074°00'0 0.0
2017-Jun-20 19:30N 40°46' W 074°00'0 0.0
2017-Jun-20 19:00N 40°46' W 074°00'0 0.0
2017-Jun-20 18:30N 40°46' W 074°00'510.6
2017-Jun-20 18:01N 40°50' W 073°57'5 5.3
2017-Jun-20 17:05N 40°46' W 073°57'114.4
2017-Jun-20 17:00N 40°45' W 073°58'5 9.5
2017-Jun-20 16:30N 40°41' W 074°02'5 9.3
2017-Jun-20 15:59N 40°46' W 074°00'0 0.0
2017-Jun-20 15:29N 40°46' W 074°00'0 0.0
2017-Jun-20 14:56N 40°46' W 074°00'0 0.0
2017-Jun-20 14:29N 40°46' W 074°00'0 0.0
2017-Jun-20 01:11N 40°46' W 074°00'0 0.0
2017-Jun-20 00:59N 40°46' W 074°00'3 6.9
2017-Jun-20 00:30N 40°43' W 074°02'2 3.2
2017-Jun-20 00:01N 40°42' W 073°60'0 0.5
2017-Jun-19 23:30N 40°42' W 073°60'4 7.1
2017-Jun-19 23:00N 40°46' W 074°00'0 0.0
2017-Jun-19 22:29N 40°46' W 074°00'0 0.0
2017-Jun-19 21:59N 40°46' W 074°00'0 0.0
2017-Jun-19 21:30N 40°46' W 074°00'3 6.8
2017-Jun-19 21:00N 40°43' W 073°58'3 5.2
2017-Jun-19 20:31N 40°42' W 074°02'4 7.5
2017-Jun-19 20:00N 40°46' W 074°00'0 0.0
2017-Jun-19 19:29N 40°46' W 074°00'0 0.0
2017-Jun-19 18:50N 40°46' W 074°00'0 0.0
2017-Jun-19 18:30N 40°46' W 074°00'4 9.0
2017-Jun-19 18:00N 40°50' W 073°58'4 4.3
2017-Jun-19 17:00N 40°45' W 073°57'612.0
2017-Jun-19 16:30N 40°41' W 074°03'510.1
2017-Jun-19 16:00N 40°46' W 074°00'0 0.0
2017-Jun-19 15:29N 40°46' W 074°00'0 0.0
2017-Jun-19 14:59N 40°46' W 074°00'0 0.0
2017-Jun-19 14:29N 40°46' W 074°00'0 0.0
2017-Jun-19 01:04N 40°46' W 074°00'0 0.0
2017-Jun-19 00:58N 40°46' W 074°00'3 6.6
2017-Jun-19 00:30N 40°43' W 074°02'2 3.2
2017-Jun-19 00:00N 40°42' W 073°60'0 0.6
2017-Jun-18 23:30N 40°42' W 073°59'4 7.1
2017-Jun-18 23:00N 40°46' W 074°00'0 0.3
2017-Jun-18 22:29N 40°46' W 074°00'0 0.0
2017-Jun-18 21:59N 40°46' W 074°00'0 0.5
2017-Jun-18 21:30N 40°46' W 074°00'3 5.7
2017-Jun-18 21:00N 40°44' W 073°58'3 5.8
2017-Jun-18 20:30N 40°42' W 074°02'4 6.9
2017-Jun-18 20:00N 40°46' W 074°00'0 0.0
2017-Jun-18 19:30N 40°46' W 074°00'0 0.0
2017-Jun-18 19:00N 40°46' W 074°00'0 0.0
2017-Jun-18 18:30N 40°46' W 074°00'510.5
2017-Jun-18 18:00N 40°50' W 073°57'5 4.8
2017-Jun-18 17:03N 40°46' W 073°57'113.5
2017-Jun-18 17:00N 40°45' W 073°57'611.5
2017-Jun-18 16:30N 40°41' W 074°03'5 9.5
2017-Jun-18 15:59N 40°46' W 074°00'0 0.0
2017-Jun-18 15:29N 40°46' W 074°00'0 0.0
2017-Jun-18 14:50N 40°46' W 074°00'0 0.0
2017-Jun-18 03:55N 40°46' W 074°00'2 4.7
2017-Jun-18 03:30N 40°44' W 074°01'2 4.2
2017-Jun-18 03:01N 40°42' W 073°59'3 5.1
2017-Jun-18 02:30N 40°41' W 074°03'3 6.9
2017-Jun-18 02:00N 40°45' W 074°01'1 2.5
2017-Jun-18 01:26N 40°46' W 074°00'0 0.0
2017-Jun-18 00:59N 40°46' W 074°00'0 0.0
2017-Jun-18 00:29N 40°46' W 074°00'0 0.0
2017-Jun-17 23:59N 40°46' W 074°00'0 0.0
2017-Jun-17 23:29N 40°46' W 074°00'0 0.0
2017-Jun-17 22:59N 40°46' W 074°00'0 0.0
2017-Jun-17 22:29N 40°46' W 074°00'0 0.0
2017-Jun-17 21:59N 40°46' W 074°00'0 0.0
2017-Jun-17 21:30N 40°46' W 074°00'4 8.6
2017-Jun-17 21:00N 40°42' W 074°02'4 8.4
2017-Jun-17 20:30N 40°46' W 074°00'0 0.0
2017-Jun-17 20:00N 40°46' W 074°00'0 0.2
2017-Jun-17 19:31N 40°46' W 074°00'3 6.7
2017-Jun-17 19:00N 40°43' W 074°02'3 6.6
2017-Jun-17 18:30N 40°46' W 074°00'0 0.0
2017-Jun-17 18:00N 40°46' W 074°00'0 0.0
2017-Jun-17 17:30N 40°46' W 074°00'0 0.0
2017-Jun-17 17:00N 40°46' W 074°00'4 7.9
2017-Jun-17 16:30N 40°42' W 074°01'1 1.4
2017-Jun-17 16:00N 40°41' W 074°01'1 2.8
2017-Jun-17 15:30N 40°41' W 074°03'5 9.2
2017-Jun-17 14:57N 40°46' W 074°00'0 0.0
2017-Jun-17 14:30N 40°46' W 074°00'0 0.0
2017-Jun-17 01:18N 40°46' W 074°00'0 0.0
2017-Jun-17 01:00N 40°46' W 074°00'2 3.3
2017-Jun-17 00:30N 40°44' W 074°01'3 5.8
2017-Jun-17 00:00N 40°42' W 074°02'2 4.6
2017-Jun-16 23:30N 40°42' W 073°59'2 3.4
2017-Jun-16 23:00N 40°44' W 073°58'3 5.3
2017-Jun-16 22:30N 40°43' W 074°01'3 4.9
2017-Jun-16 21:55N 40°46' W 074°00'0 0.0
2017-Jun-16 21:28N 40°46' W 074°00'0 0.0
2017-Jun-16 20:58N 40°46' W 074°00'0 0.0
2017-Jun-16 20:28N 40°46' W 074°00'0 0.0
2017-Jun-16 19:58N 40°46' W 074°00'0 0.0
2017-Jun-16 19:28N 40°46' W 074°00'0 0.0
2017-Jun-16 18:55N 40°46' W 074°00'0 0.0
2017-Jun-16 18:28N 40°46' W 074°00'0 0.0
2017-Jun-16 17:59N 40°46' W 074°00'3 7.1
2017-Jun-16 17:30N 40°43' W 073°59'3 5.7
2017-Jun-16 17:01N 40°41' W 074°02'5 9.0
2017-Jun-16 16:29N 40°46' W 074°00'0 0.0
2017-Jun-16 15:59N 40°46' W 074°00'0 0.0
2017-Jun-16 15:30N 40°46' W 074°00'510.3
2017-Jun-16 15:01N 40°41' W 074°03'5 9.9
2017-Jun-16 14:30N 40°46' W 074°00'0 0.0
2017-Jun-16 02:24N 40°46' W 074°00'0 1.2
2017-Jun-16 02:00N 40°45' W 074°01'4 7.2
2017-Jun-16 01:30N 40°42' W 074°01'3 5.0
2017-Jun-16 01:00N 40°44' W 073°58'4 8.4
2017-Jun-16 00:30N 40°41' W 074°03'5 9.8
2017-Jun-16 00:00N 40°46' W 074°00'0 0.2
2017-Jun-15 23:25N 40°46' W 074°00'0 0.0
2017-Jun-15 22:58N 40°46' W 074°00'0 0.0
2017-Jun-15 22:28N 40°46' W 074°00'0 0.0
2017-Jun-15 21:58N 40°46' W 074°00'0 0.0
2017-Jun-15 21:30N 40°46' W 074°00'3 6.9
2017-Jun-15 21:01N 40°43' W 073°59'3 6.6
2017-Jun-15 20:31N 40°41' W 074°03'5 9.5
2017-Jun-15 20:00N 40°46' W 074°00'0 0.0
2017-Jun-15 19:29N 40°46' W 074°00'0 0.0
2017-Jun-15 18:59N 40°46' W 074°00'0 0.0
2017-Jun-15 18:31N 40°46' W 074°00'5 9.4
2017-Jun-15 18:01N 40°50' W 073°58'2 2.4
2017-Jun-15 17:20N 40°49' W 073°56'412.5
2017-Jun-15 17:00N 40°45' W 073°58'611.1
2017-Jun-15 16:31N 40°41' W 074°03'5 9.6
2017-Jun-15 16:00N 40°46' W 074°00'0 0.0
2017-Jun-15 15:30N 40°46' W 074°00'0 0.0
2017-Jun-15 15:00N 40°46' W 074°00'0 0.0
2017-Jun-15 14:30N 40°46' W 074°00'0 0.0
2017-Jun-15 01:08N 40°46' W 074°00'0 1.5
2017-Jun-15 01:01N 40°46' W 074°00'510.0
2017-Jun-15 00:30N 40°41' W 074°03'4 8.2
2017-Jun-15 00:00N 40°44' W 073°58'2 4.7
2017-Jun-14 23:31N 40°42' W 074°00'4 7.3
2017-Jun-14 23:00N 40°46' W 074°00'0 0.0
2017-Jun-14 22:29N 40°46' W 074°00'0 0.0
2017-Jun-14 22:00N 40°46' W 074°00'0 0.2
2017-Jun-14 21:30N 40°46' W 074°00'5 9.7
2017-Jun-14 21:00N 40°41' W 074°02'5 9.3
2017-Jun-14 20:30N 40°46' W 074°00'0 0.0
2017-Jun-14 20:00N 40°46' W 074°00'0 0.1
2017-Jun-14 19:30N 40°46' W 074°00'5 9.4
2017-Jun-14 19:00N 40°41' W 074°02'5 9.4
2017-Jun-14 18:30N 40°46' W 074°00'0 0.0
2017-Jun-14 18:00N 40°46' W 074°00'0 0.0
2017-Jun-14 17:31N 40°46' W 074°00'0 0.0
2017-Jun-14 17:00N 40°46' W 074°00'3 6.8
2017-Jun-14 16:31N 40°42' W 073°59'5 9.1
2017-Jun-14 16:00N 40°39' W 074°02'3 5.6
2017-Jun-14 15:31N 40°41' W 074°02'5 9.3
2017-Jun-14 15:00N 40°46' W 074°00'0 0.0
2017-Jun-14 14:30N 40°46' W 074°00'0 0.0
2017-Jun-14 01:08N 40°46' W 074°00'0 0.0
2017-Jun-14 00:59N 40°46' W 074°00'3 7.0
2017-Jun-14 00:30N 40°43' W 074°02'2 3.9
2017-Jun-14 00:00N 40°43' W 073°59'1 1.1
2017-Jun-13 23:30N 40°42' W 073°60'4 6.8
2017-Jun-13 22:59N 40°46' W 074°00'0 0.0
2017-Jun-13 22:29N 40°46' W 074°00'0 0.0
2017-Jun-13 21:59N 40°46' W 074°00'0 0.0
2017-Jun-13 21:29N 40°46' W 074°00'0 0.0
2017-Jun-13 20:59N 40°46' W 074°00'  
Track history (hours):
 
Tides and Currents Weather Stations Pressure Air Temp Water Temp Dewpoint Dewpoint Depression Visibility Wind Speed Wind Dir Waves Ship Positions

Circle Line Brooklyn

Owner: Circle Line Sight Seeing Yachts Inc., New York, NY. More information available from US FCC via Universal Licensing System and Coast Guard Vessel Documentation Center.

Last reported at 2017-Jun-23 20:55 UTC. Time now 2017-Jun-23 22:10 UTC.
Position N 40°46' W 074°00'.

MMSI: 367402250.

Date/timePositionNaut miles runAvg speedWind from/ knotsBaromVisibWave heightAir tempDewpointWater temp
2017-Jun-23 20:55N 40°46' W 074°00'4 9.6
2017-Jun-23 20:31N 40°42' W 074°01'1 1.9
2017-Jun-23 20:00N 40°41' W 074°01'1 2.8
2017-Jun-23 19:30N 40°41' W 074°03'510.1
2017-Jun-23 19:01N 40°46' W 074°00'0 0.0
2017-Jun-23 18:28N 40°46' W 074°00'0 0.0
2017-Jun-23 18:00N 40°46' W 074°00'3 7.0
2017-Jun-23 17:30N 40°42' W 073°60'3 5.1
2017-Jun-23 17:00N 40°41' W 074°03'510.0
2017-Jun-23 16:30N 40°46' W 074°00'0 0.0
2017-Jun-23 15:58N 40°46' W 074°00'0 0.0
2017-Jun-23 15:30N 40°46' W 074°00'5 9.8
2017-Jun-23 15:00N 40°41' W 074°02'5 9.4
2017-Jun-23 14:30N 40°46' W 074°00'0 0.0
2017-Jun-23 13:58N 40°46' W 074°00'0 0.0
2017-Jun-23 13:28N 40°46' W 074°00'0 0.0
2017-Jun-23 12:58N 40°46' W 074°00'0 0.0
2017-Jun-23 02:41N 40°46' W 074°00'0 0.0
2017-Jun-23 02:29N 40°46' W 074°00'0 0.0
2017-Jun-23 01:56N 40°46' W 074°00'1 3.3
2017-Jun-23 01:31N 40°45' W 074°01'3 5.0
2017-Jun-23 01:01N 40°43' W 073°59'0 0.8
2017-Jun-23 00:31N 40°43' W 073°58'3 6.7
2017-Jun-23 00:00N 40°41' W 074°02'4 8.2
2017-Jun-22 23:30N 40°45' W 074°01'1 1.6
2017-Jun-22 23:00N 40°46' W 074°00'0 0.0
2017-Jun-22 22:30N 40°46' W 074°00'0 0.0
2017-Jun-22 22:00N 40°46' W 074°00'0 0.0
2017-Jun-22 21:29N 40°46' W 074°00'3 7.1
2017-Jun-22 21:00N 40°42' W 073°59'3 5.9
2017-Jun-22 20:30N 40°41' W 074°03'5 9.9
2017-Jun-22 20:00N 40°46' W 074°00'0 0.0
2017-Jun-22 19:30N 40°46' W 074°00'0 0.0
2017-Jun-22 19:00N 40°46' W 074°00'0 0.0
2017-Jun-22 18:30N 40°46' W 074°00'611.9
2017-Jun-22 18:00N 40°51' W 073°57'3 5.1
2017-Jun-22 17:24N 40°48' W 073°56'511.9
2017-Jun-22 17:00N 40°44' W 073°58'4 8.9
2017-Jun-22 16:31N 40°41' W 074°03'5 9.9
2017-Jun-22 16:00N 40°46' W 074°00'0 0.0
2017-Jun-22 15:30N 40°46' W 074°00'0 0.0
2017-Jun-22 14:54N 40°46' W 074°00'0 0.0
2017-Jun-22 14:30N 40°46' W 074°00'0 0.0
2017-Jun-21 00:52N 40°46' W 074°00'3 7.7
2017-Jun-21 00:30N 40°43' W 074°02'2 3.1
2017-Jun-21 00:01N 40°42' W 074°01'2 4.8
2017-Jun-20 23:31N 40°43' W 073°58'3 6.9
2017-Jun-20 23:00N 40°46' W 074°00'0 0.5
2017-Jun-20 22:27N 40°46' W 074°00'0 0.0
2017-Jun-20 21:57N 40°46' W 074°00'0 0.0
2017-Jun-20 21:30N 40°46' W 074°00'3 6.8
2017-Jun-20 21:01N 40°42' W 073°60'3 5.3
2017-Jun-20 20:30N 40°41' W 074°03'5 9.9
2017-Jun-20 20:00N 40°46' W 074°00'0 0.0
2017-Jun-20 19:30N 40°46' W 074°00'0 0.0
2017-Jun-20 19:00N 40°46' W 074°00'0 0.0
2017-Jun-20 18:30N 40°46' W 074°00'510.6
2017-Jun-20 18:01N 40°50' W 073°57'5 5.3
2017-Jun-20 17:05N 40°46' W 073°57'114.4
2017-Jun-20 17:00N 40°45' W 073°58'5 9.5
2017-Jun-20 16:30N 40°41' W 074°02'5 9.3
2017-Jun-20 15:59N 40°46' W 074°00'0 0.0
2017-Jun-20 15:29N 40°46' W 074°00'0 0.0
2017-Jun-20 14:56N 40°46' W 074°00'0 0.0
2017-Jun-20 14:29N 40°46' W 074°00'0 0.0
2017-Jun-20 01:11N 40°46' W 074°00'0 0.0
2017-Jun-20 00:59N 40°46' W 074°00'3 6.9
2017-Jun-20 00:30N 40°43' W 074°02'2 3.2
2017-Jun-20 00:01N 40°42' W 073°60'0 0.5
2017-Jun-19 23:30N 40°42' W 073°60'4 7.1
2017-Jun-19 23:00N 40°46' W 074°00'0 0.0
2017-Jun-19 22:29N 40°46' W 074°00'0 0.0
2017-Jun-19 21:59N 40°46' W 074°00'0 0.0
2017-Jun-19 21:30N 40°46' W 074°00'3 6.8
2017-Jun-19 21:00N 40°43' W 073°58'3 5.2
2017-Jun-19 20:31N 40°42' W 074°02'4 7.5
2017-Jun-19 20:00N 40°46' W 074°00'0 0.0
2017-Jun-19 19:29N 40°46' W 074°00'0 0.0
2017-Jun-19 18:50N 40°46' W 074°00'0 0.0
2017-Jun-19 18:30N 40°46' W 074°00'4 9.0
2017-Jun-19 18:00N 40°50' W 073°58'4 4.3
2017-Jun-19 17:00N 40°45' W 073°57'612.0
2017-Jun-19 16:30N 40°41' W 074°03'510.1
2017-Jun-19 16:00N 40°46' W 074°00'0 0.0
2017-Jun-19 15:29N 40°46' W 074°00'0 0.0
2017-Jun-19 14:59N 40°46' W 074°00'0 0.0
2017-Jun-19 14:29N 40°46' W 074°00'0 0.0
2017-Jun-19 01:04N 40°46' W 074°00'0 0.0
2017-Jun-19 00:58N 40°46' W 074°00'3 6.6
2017-Jun-19 00:30N 40°43' W 074°02'2 3.2
2017-Jun-19 00:00N 40°42' W 073°60'0 0.6
2017-Jun-18 23:30N 40°42' W 073°59'4 7.1
2017-Jun-18 23:00N 40°46' W 074°00'0 0.3
2017-Jun-18 22:29N 40°46' W 074°00'0 0.0
2017-Jun-18 21:59N 40°46' W 074°00'0 0.5
2017-Jun-18 21:30N 40°46' W 074°00'3 5.7
2017-Jun-18 21:00N 40°44' W 073°58'3 5.8
2017-Jun-18 20:30N 40°42' W 074°02'4 6.9
2017-Jun-18 20:00N 40°46' W 074°00'0 0.0
2017-Jun-18 19:30N 40°46' W 074°00'0 0.0
2017-Jun-18 19:00N 40°46' W 074°00'0 0.0
2017-Jun-18 18:30N 40°46' W 074°00'510.5
2017-Jun-18 18:00N 40°50' W 073°57'5 4.8
2017-Jun-18 17:03N 40°46' W 073°57'113.5
2017-Jun-18 17:00N 40°45' W 073°57'611.5
2017-Jun-18 16:30N 40°41' W 074°03'5 9.5
2017-Jun-18 15:59N 40°46' W 074°00'0 0.0
2017-Jun-18 15:29N 40°46' W 074°00'0 0.0
2017-Jun-18 14:50N 40°46' W 074°00'0 0.0
2017-Jun-18 03:55N 40°46' W 074°00'2 4.7
2017-Jun-18 03:30N 40°44' W 074°01'2 4.2
2017-Jun-18 03:01N 40°42' W 073°59'3 5.1
2017-Jun-18 02:30N 40°41' W 074°03'3 6.9
2017-Jun-18 02:00N 40°45' W 074°01'1 2.5
2017-Jun-18 01:26N 40°46' W 074°00'0 0.0
2017-Jun-18 00:59N 40°46' W 074°00'0 0.0
2017-Jun-18 00:29N 40°46' W 074°00'0 0.0
2017-Jun-17 23:59N 40°46' W 074°00'0 0.0
2017-Jun-17 23:29N 40°46' W 074°00'0 0.0
2017-Jun-17 22:59N 40°46' W 074°00'0 0.0
2017-Jun-17 22:29N 40°46' W 074°00'0 0.0
2017-Jun-17 21:59N 40°46' W 074°00'0 0.0
2017-Jun-17 21:30N 40°46' W 074°00'4 8.6
2017-Jun-17 21:00N 40°42' W 074°02'4 8.4
2017-Jun-17 20:30N 40°46' W 074°00'0 0.0
2017-Jun-17 20:00N 40°46' W 074°00'0 0.2
2017-Jun-17 19:31N 40°46' W 074°00'3 6.7
2017-Jun-17 19:00N 40°43' W 074°02'3 6.6
2017-Jun-17 18:30N 40°46' W 074°00'0 0.0
2017-Jun-17 18:00N 40°46' W 074°00'0 0.0
2017-Jun-17 17:30N 40°46' W 074°00'0 0.0
2017-Jun-17 17:00N 40°46' W 074°00'4 7.9
2017-Jun-17 16:30N 40°42' W 074°01'1 1.4
2017-Jun-17 16:00N 40°41' W 074°01'1 2.8
2017-Jun-17 15:30N 40°41' W 074°03'5 9.2
2017-Jun-17 14:57N 40°46' W 074°00'0 0.0
2017-Jun-17 14:30N 40°46' W 074°00'0 0.0
2017-Jun-17 01:18N 40°46' W 074°00'0 0.0
2017-Jun-17 01:00N 40°46' W 074°00'2 3.3
2017-Jun-17 00:30N 40°44' W 074°01'3 5.8
2017-Jun-17 00:00N 40°42' W 074°02'2 4.6
2017-Jun-16 23:30N 40°42' W 073°59'2 3.4
2017-Jun-16 23:00N 40°44' W 073°58'3 5.3
2017-Jun-16 22:30N 40°43' W 074°01'3 4.9
2017-Jun-16 21:55N 40°46' W 074°00'0 0.0
2017-Jun-16 21:28N 40°46' W 074°00'0 0.0
2017-Jun-16 20:58N 40°46' W 074°00'0 0.0
2017-Jun-16 20:28N 40°46' W 074°00'0 0.0
2017-Jun-16 19:58N 40°46' W 074°00'0 0.0
2017-Jun-16 19:28N 40°46' W 074°00'0 0.0
2017-Jun-16 18:55N 40°46' W 074°00'0 0.0
2017-Jun-16 18:28N 40°46' W 074°00'0 0.0
2017-Jun-16 17:59N 40°46' W 074°00'3 7.1
2017-Jun-16 17:30N 40°43' W 073°59'3 5.7
2017-Jun-16 17:01N 40°41' W 074°02'5 9.0
2017-Jun-16 16:29N 40°46' W 074°00'0 0.0
2017-Jun-16 15:59N 40°46' W 074°00'0 0.0
2017-Jun-16 15:30N 40°46' W 074°00'510.3
2017-Jun-16 15:01N 40°41' W 074°03'5 9.9
2017-Jun-16 14:30N 40°46' W 074°00'0 0.0
2017-Jun-16 02:24N 40°46' W 074°00'0 1.2
2017-Jun-16 02:00N 40°45' W 074°01'4 7.2
2017-Jun-16 01:30N 40°42' W 074°01'3 5.0
2017-Jun-16 01:00N 40°44' W 073°58'4 8.4
2017-Jun-16 00:30N 40°41' W 074°03'5 9.8
2017-Jun-16 00:00N 40°46' W 074°00'0 0.2
2017-Jun-15 23:25N 40°46' W 074°00'0 0.0
2017-Jun-15 22:58N 40°46' W 074°00'0 0.0
2017-Jun-15 22:28N 40°46' W 074°00'0 0.0
2017-Jun-15 21:58N 40°46' W 074°00'0 0.0
2017-Jun-15 21:30N 40°46' W 074°00'3 6.9
2017-Jun-15 21:01N 40°43' W 073°59'3 6.6
2017-Jun-15 20:31N 40°41' W 074°03'5 9.5
2017-Jun-15 20:00N 40°46' W 074°00'0 0.0
2017-Jun-15 19:29N 40°46' W 074°00'0 0.0
2017-Jun-15 18:59N 40°46' W 074°00'0 0.0
2017-Jun-15 18:31N 40°46' W 074°00'5 9.4
2017-Jun-15 18:01N 40°50' W 073°58'2 2.4
2017-Jun-15 17:20N 40°49' W 073°56'412.5
2017-Jun-15 17:00N 40°45' W 073°58'611.1
2017-Jun-15 16:31N 40°41' W 074°03'5 9.6
2017-Jun-15 16:00N 40°46' W 074°00'0 0.0
2017-Jun-15 15:30N 40°46' W 074°00'0 0.0
2017-Jun-15 15:00N 40°46' W 074°00'0 0.0
2017-Jun-15 14:30N 40°46' W 074°00'0 0.0
2017-Jun-15 01:08N 40°46' W 074°00'0 1.5
2017-Jun-15 01:01N 40°46' W 074°00'510.0
2017-Jun-15 00:30N 40°41' W 074°03'4 8.2
2017-Jun-15 00:00N 40°44' W 073°58'2 4.7
2017-Jun-14 23:31N 40°42' W 074°00'4 7.3
2017-Jun-14 23:00N 40°46' W 074°00'0 0.0
2017-Jun-14 22:29N 40°46' W 074°00'0 0.0
2017-Jun-14 22:00N 40°46' W 074°00'0 0.2
2017-Jun-14 21:30N 40°46' W 074°00'5 9.7
2017-Jun-14 21:00N 40°41' W 074°02'5 9.3
2017-Jun-14 20:30N 40°46' W 074°00'0 0.0
2017-Jun-14 20:00N 40°46' W 074°00'0 0.1
2017-Jun-14 19:30N 40°46' W 074°00'5 9.4
2017-Jun-14 19:00N 40°41' W 074°02'5 9.4
2017-Jun-14 18:30N 40°46' W 074°00'0 0.0
2017-Jun-14 18:00N 40°46' W 074°00'0 0.0
2017-Jun-14 17:31N 40°46' W 074°00'0 0.0
2017-Jun-14 17:00N 40°46' W 074°00'3 6.8
2017-Jun-14 16:31N 40°42' W 073°59'5 9.1
2017-Jun-14 16:00N 40°39' W 074°02'3 5.6
2017-Jun-14 15:31N 40°41' W 074°02'5 9.3
2017-Jun-14 15:00N 40°46' W 074°00'0 0.0
2017-Jun-14 14:30N 40°46' W 074°00'0 0.0
2017-Jun-14 01:08N 40°46' W 074°00'0 0.0
2017-Jun-14 00:59N 40°46' W 074°00'3 7.0
2017-Jun-14 00:30N 40°43' W 074°02'2 3.9
2017-Jun-14 00:00N 40°43' W 073°59'1 1.1
2017-Jun-13 23:30N 40°42' W 073°60'4 6.8
2017-Jun-13 22:59N 40°46' W 074°00'0 0.0
2017-Jun-13 22:29N 40°46' W 074°00'0 0.0
2017-Jun-13 21:59N 40°46' W 074°00'0 0.0
2017-Jun-13 21:29N 40°46' W 074°00'0 0.0
2017-Jun-13 20:59N 40°46' W 074°00'  

Dump ship's entire track history